Time;durP1;ratioP1;P1;durP2;ratioP2;P2;SDS_P1;SDS_P2;PMS_P1;PMS_P2;Temp;Humidity;BMP_temperature;BMP_pressure;BME280_temperature;BME280_humidity;BME280_pressure;Samples;Min_cycle;Max_cycle;Signal;HPM_P1;HPM_P2
2022/09/12 00:00:00;;;;;;;10.33;9.33;;;19.80;42.20;;;;;;4982462;28;20654;-90
2022/09/12 00:02:25;;;;;;;9.53;8.47;;;19.70;42.90;;;;;;4982217;28;20207;-89
2022/09/12 00:04:51;;;;;;;9.53;8.57;;;19.60;44.60;;;;;;4981575;28;20183;-90
2022/09/12 00:07:17;;;;;;;9.90;8.83;;;19.60;46.00;;;;;;4981369;28;20253;-90
2022/09/12 00:09:42;;;;;;;10.40;9.03;;;19.50;47.40;;;;;;4998852;28;20264;-89
2022/09/12 00:12:08;;;;;;;10.30;9.17;;;19.50;47.40;;;;;;4982210;28;20640;-90
2022/09/12 00:14:34;;;;;;;10.20;9.17;;;19.50;48.50;;;;;;4999683;28;20207;-90
2022/09/12 00:17:00;;;;;;;9.70;8.70;;;19.50;49.90;;;;;;4982465;28;20236;-90
2022/09/12 00:19:27;;;;;;;13.03;9.33;;;19.40;51.50;;;;;;4982026;28;20181;-89
2022/09/12 00:21:53;;;;;;;9.93;8.93;;;19.40;53.00;;;;;;4982591;28;20206;-89
2022/09/12 00:24:20;;;;;;;11.37;8.23;;;19.40;53.50;;;;;;4983275;28;20783;-90
2022/09/12 00:26:46;;;;;;;10.90;9.33;;;19.40;53.20;;;;;;4985132;28;20179;-91
2022/09/12 00:29:18;;;;;;;9.13;8.20;;;19.40;52.50;;;;;;4989920;28;20204;-89
2022/09/12 00:31:45;;;;;;;11.57;8.53;;;19.30;53.70;;;;;;5003293;28;20226;-89
2022/09/12 00:34:12;;;;;;;9.83;8.83;;;19.30;54.50;;;;;;5003953;28;20179;-89
2022/09/12 00:36:39;;;;;;;10.93;9.00;;;19.30;54.80;;;;;;4997240;28;20187;-89
2022/09/12 00:39:06;;;;;;;9.60;8.60;;;19.40;54.70;;;;;;4991876;28;20204;-89
2022/09/12 00:41:50;;;;;;;11.30;8.87;;;19.30;55.50;;;;;;5002220;28;20184;-88
2022/09/12 00:44:19;;;;;;;10.23;8.80;;;19.20;56.60;;;;;;4986926;28;20190;-88
2022/09/12 00:47:15;;;;;;;9.30;8.30;;;19.30;56.80;;;;;;5002966;28;20657;-90
2022/09/12 00:49:53;;;;;;;9.80;8.90;;;19.30;55.70;;;;;;4987619;28;20194;-88
2022/09/12 00:52:38;;;;;;;10.27;9.27;;;19.30;55.00;;;;;;4998081;28;20199;-90
2022/09/12 00:55:40;;;;;;;12.10;9.00;;;19.30;54.10;;;;;;5020429;28;20219;-91
2022/09/12 00:58:11;;;;;;;10.97;8.90;;;19.30;54.20;;;;;;4997776;28;20255;-90
2022/09/12 01:00:40;;;;;;;10.70;9.43;;;19.30;55.60;;;;;;4991600;28;20255;-91
2022/09/12 01:03:14;;;;;;;10.67;9.57;;;19.30;55.90;;;;;;4983457;28;20210;-91
2022/09/12 01:05:45;;;;;;;10.33;9.27;;;19.30;56.20;;;;;;4985708;28;20186;-90
2022/09/12 01:08:11;;;;;;;10.97;9.23;;;19.30;55.60;;;;;;5005973;28;20210;-90
2022/09/12 01:10:40;;;;;;;10.03;9.03;;;19.30;56.10;;;;;;5004082;28;20227;-89
2022/09/12 01:13:08;;;;;;;10.43;8.83;;;19.30;55.60;;;;;;4987556;28;20230;-89
2022/09/12 01:15:37;;;;;;;10.43;9.27;;;19.20;56.80;;;;;;4987421;28;20211;-90
2022/09/12 01:18:08;;;;;;;10.87;9.70;;;19.20;56.20;;;;;;4985411;28;20203;-90
2022/09/12 01:20:54;;;;;;;10.17;9.10;;;19.20;57.50;;;;;;5001786;28;20187;-89
2022/09/12 01:23:52;;;;;;;11.90;9.70;;;19.20;58.10;;;;;;4985446;28;20214;-90
2022/09/12 01:26:39;;;;;;;11.57;9.80;;;19.20;59.40;;;;;;5003392;28;20186;-90
2022/09/12 01:29:16;;;;;;;12.13;10.37;;;19.20;58.30;;;;;;5001428;28;20212;-90
2022/09/12 01:31:58;;;;;;;12.90;10.50;;;19.20;57.10;;;;;;4986564;28;20214;-91
2022/09/12 01:34:33;;;;;;;12.70;10.73;;;19.30;57.90;;;;;;4991673;28;20197;-89
2022/09/12 01:37:16;;;;;;;11.87;10.27;;;19.20;59.00;;;;;;4996597;28;20210;-90
2022/09/12 01:40:21;;;;;;;11.40;10.00;;;19.00;61.70;;;;;;4995643;28;20203;-90
2022/09/12 01:42:55;;;;;;;11.97;10.33;;;19.00;63.60;;;;;;4956623;28;20647;-90
2022/09/12 01:45:31;;;;;;;12.20;10.07;;;19.00;63.40;;;;;;5002921;28;20173;-91
2022/09/12 01:48:06;;;;;;;10.83;9.73;;;18.90;66.10;;;;;;4983914;28;20179;-90
2022/09/12 01:50:36;;;;;;;13.40;10.13;;;18.80;69.20;;;;;;4985126;28;20186;-89
2022/09/12 01:53:19;;;;;;;12.83;10.40;;;18.80;71.10;;;;;;4986694;28;20229;-91
2022/09/12 01:55:50;;;;;;;13.37;10.17;;;18.90;70.30;;;;;;4985774;28;20212;-90
2022/09/12 01:58:24;;;;;;;11.07;9.83;;;18.90;69.10;;;;;;4986979;28;20183;-90
2022/09/12 02:01:01;;;;;;;13.07;9.87;;;18.90;68.10;;;;;;4988035;28;20174;-91
2022/09/12 02:03:33;;;;;;;11.20;9.47;;;18.90;67.60;;;;;;4987311;28;20183;-89
2022/09/12 02:06:27;;;;;;;14.40;10.73;;;18.90;67.70;;;;;;4985497;28;20187;-90
2022/09/12 02:09:03;;;;;;;12.20;11.10;;;18.90;66.70;;;;;;4974612;28;20698;-90
2022/09/12 02:11:33;;;;;;;12.07;10.10;;;18.90;67.10;;;;;;4983229;28;20183;-90
2022/09/12 02:14:24;;;;;;;12.07;10.97;;;18.90;65.80;;;;;;4984424;28;20236;-91
2022/09/12 02:17:01;;;;;;;12.23;10.83;;;18.90;65.30;;;;;;4985873;28;20228;-90
2022/09/12 02:19:36;;;;;;;11.70;10.30;;;18.90;64.80;;;;;;4991042;28;20278;-90
2022/09/12 02:22:05;;;;;;;10.97;9.93;;;18.90;63.80;;;;;;5002132;28;20178;-89
2022/09/12 02:24:38;;;;;;;12.33;9.97;;;19.00;61.60;;;;;;5011668;28;20195;-90
2022/09/12 02:27:13;;;;;;;11.33;9.30;;;18.90;61.30;;;;;;4989790;28;20243;-89
2022/09/12 02:29:39;;;;;;;10.73;9.63;;;18.80;63.10;;;;;;4988779;28;20547;-90
2022/09/12 02:32:32;;;;;;;13.43;9.90;;;18.80;63.90;;;;;;5009779;28;20249;-91
2022/09/12 02:35:17;;;;;;;10.57;9.40;;;18.80;64.60;;;;;;4997654;28;20188;-90
2022/09/12 02:37:55;;;;;;;11.93;9.40;;;18.80;64.40;;;;;;5003036;28;20195;-90
2022/09/12 02:40:21;;;;;;;12.63;10.20;;;18.80;64.90;;;;;;5002521;28;20198;-89
2022/09/12 02:42:48;;;;;;;12.17;9.80;;;18.90;63.90;;;;;;4984784;28;20176;-90
2022/09/12 02:45:15;;;;;;;11.70;9.93;;;18.80;65.20;;;;;;4985398;28;20194;-89
2022/09/12 02:47:48;;;;;;;11.73;9.87;;;18.80;66.50;;;;;;4982577;28;20745;-91
2022/09/12 02:50:14;;;;;;;10.90;9.77;;;18.80;67.00;;;;;;4984293;28;20183;-90
2022/09/12 02:52:41;;;;;;;12.13;9.27;;;18.80;66.80;;;;;;4998202;28;20229;-90
2022/09/12 02:55:07;;;;;;;10.47;9.43;;;18.70;67.90;;;;;;4996908;28;20178;-90
2022/09/12 02:57:36;;;;;;;11.00;9.90;;;18.70;68.40;;;;;;4998697;28;20194;-89
2022/09/12 03:00:06;;;;;;;11.13;9.97;;;18.70;68.40;;;;;;4993357;28;20254;-90
2022/09/12 03:06:05;;;;;;;9.97;8.97;;;18.70;67.20;;;;;;5002993;28;20232;-90
2022/09/12 03:08:54;;;;;;;10.20;9.20;;;18.70;66.30;;;;;;4984827;28;20267;-89
2022/09/12 03:11:36;;;;;;;11.87;9.57;;;18.80;66.50;;;;;;4982717;28;20189;-90
2022/09/12 03:14:46;;;;;;;10.23;9.13;;;18.70;66.30;;;;;;4996731;28;20198;-90
2022/09/12 03:17:38;;;;;;;12.10;9.47;;;18.80;65.80;;;;;;4997608;28;20186;-90
2022/09/12 03:20:33;;;;;;;10.23;9.13;;;18.70;64.70;;;;;;5001929;28;20171;-90
2022/09/12 03:23:07;;;;;;;10.70;8.57;;;18.70;64.80;;;;;;5001663;28;20199;-89
2022/09/12 03:25:45;;;;;;;10.43;9.37;;;18.80;64.60;;;;;;4994813;28;20197;-89
2022/09/12 03:28:16;;;;;;;10.60;9.50;;;18.70;65.10;;;;;;4981262;28;20229;-89
2022/09/12 03:30:46;;;;;;;10.43;9.30;;;18.60;64.70;;;;;;4979229;28;20186;-90
2022/09/12 03:33:21;;;;;;;11.33;10.13;;;18.70;62.30;;;;;;4979364;28;20236;-89
2022/09/12 03:35:47;;;;;;;11.07;9.87;;;18.80;61.90;;;;;;4979655;28;20254;-90
2022/09/12 03:38:13;;;;;;;12.23;10.40;;;18.80;61.40;;;;;;4979935;28;20210;-89
2022/09/12 03:40:39;;;;;;;12.83;11.23;;;18.60;61.60;;;;;;4988286;28;20179;-89
2022/09/12 03:43:06;;;;;;;10.90;9.80;;;18.60;62.70;;;;;;5018301;28;20207;-90
2022/09/12 03:45:32;;;;;;;13.57;10.37;;;18.60;64.70;;;;;;5013525;28;20218;-91
2022/09/12 03:48:01;;;;;;;11.23;10.13;;;18.40;68.50;;;;;;4982785;28;20182;-90
2022/09/12 03:50:30;;;;;;;11.97;10.20;;;18.30;73.00;;;;;;4979065;28;20189;-90
2022/09/12 03:52:59;;;;;;;11.60;10.43;;;18.20;77.50;;;;;;4978902;28;20224;-90
2022/09/12 03:55:25;;;;;;;11.37;9.83;;;18.20;78.40;;;;;;4997039;28;20171;-88
2022/09/12 03:57:52;;;;;;;11.40;10.07;;;18.20;78.40;;;;;;4980684;28;20282;-91
2022/09/12 04:00:18;;;;;;;13.10;11.03;;;18.20;78.20;;;;;;4979285;28;20209;-90
2022/09/12 04:02:44;;;;;;;14.60;10.67;;;18.20;76.90;;;;;;4986858;28;20217;-91
2022/09/12 04:05:10;;;;;;;11.13;9.97;;;18.30;76.30;;;;;;4981713;28;20190;-89
2022/09/12 04:07:36;;;;;;;13.27;11.07;;;18.30;76.20;;;;;;4982186;28;20653;-90
2022/09/12 04:10:02;;;;;;;11.10;10.00;;;18.30;74.80;;;;;;4980269;28;20182;-89
2022/09/12 04:12:28;;;;;;;13.33;9.77;;;18.30;74.20;;;;;;4982610;28;20253;-91
2022/09/12 04:14:55;;;;;;;12.53;10.30;;;18.10;75.10;;;;;;5003551;28;20182;-89
2022/09/12 04:17:21;;;;;;;10.90;9.80;;;18.00;78.10;;;;;;4982254;28;20175;-91
2022/09/12 04:19:47;;;;;;;11.27;9.63;;;17.90;79.30;;;;;;4982249;28;20190;-91
2022/09/12 04:22:12;;;;;;;12.73;9.67;;;17.70;82.50;;;;;;4992303;28;20209;-89
2022/09/12 04:24:38;;;;;;;10.83;9.73;;;17.70;80.10;;;;;;4999698;28;20212;-91
2022/09/12 04:27:03;;;;;;;11.00;9.77;;;17.70;81.20;;;;;;4999232;28;20192;-90
2022/09/12 04:29:30;;;;;;;12.20;10.07;;;17.70;80.20;;;;;;5002927;28;20181;-89
2022/09/12 04:31:55;;;;;;;14.63;11.23;;;17.70;81.20;;;;;;4987696;28;20212;-89
2022/09/12 04:34:22;;;;;;;11.90;10.70;;;17.80;77.70;;;;;;5000800;28;20614;-88
2022/09/12 04:36:47;;;;;;;13.77;11.00;;;17.70;77.80;;;;;;4987077;28;20182;-88
2022/09/12 04:39:15;;;;;;;10.97;9.87;;;17.50;82.60;;;;;;5002475;28;20227;-89
2022/09/12 04:41:41;;;;;;;15.17;10.77;;;17.40;87.60;;;;;;5002600;28;20193;-91
2022/09/12 04:44:11;;;;;;;12.73;10.60;;;17.50;88.40;;;;;;5001623;28;20241;-89
2022/09/12 04:46:39;;;;;;;14.63;10.43;;;17.50;89.30;;;;;;5003135;28;20182;-90
2022/09/12 04:49:06;;;;;;;15.00;10.87;;;17.50;88.10;;;;;;5003495;28;20275;-89
2022/09/12 04:51:34;;;;;;;12.83;9.93;;;17.50;87.20;;;;;;5001797;28;20183;-90
2022/09/12 04:54:03;;;;;;;15.60;11.00;;;17.50;87.40;;;;;;5003178;28;20212;-89
2022/09/12 04:56:29;;;;;;;16.00;11.43;;;17.70;87.50;;;;;;5000802;28;20205;-88
2022/09/12 04:59:00;;;;;;;18.37;11.80;;;17.40;86.80;;;;;;5002375;28;20190;-88
2022/09/12 05:01:29;;;;;;;15.50;11.77;;;17.50;85.80;;;;;;4985753;28;20186;-89
2022/09/12 05:03:56;;;;;;;14.47;11.73;;;17.50;84.00;;;;;;5001058;28;20171;-88
2022/09/12 05:06:24;;;;;;;15.13;12.53;;;17.60;81.40;;;;;;5000446;28;20284;-90
2022/09/12 05:08:51;;;;;;;23.90;12.50;;;17.70;75.80;;;;;;4998509;28;20184;-90
2022/09/12 05:11:19;;;;;;;16.80;12.40;;;17.70;75.20;;;;;;4998509;28;20198;-89
2022/09/12 05:13:46;;;;;;;15.53;11.70;;;17.70;76.60;;;;;;5003014;28;20237;-90
2022/09/12 05:16:14;;;;;;;15.23;12.07;;;17.70;76.80;;;;;;5002782;28;20182;-91
2022/09/12 05:18:43;;;;;;;15.53;12.40;;;17.60;79.00;;;;;;5002085;28;20187;-91
2022/09/12 05:21:11;;;;;;;16.43;11.87;;;17.60;79.60;;;;;;5002392;28;20257;-88
2022/09/12 05:23:37;;;;;;;14.07;12.30;;;17.60;80.20;;;;;;5001882;28;20192;-89
2022/09/12 05:26:05;;;;;;;14.37;12.43;;;17.60;79.50;;;;;;5001303;28;20219;-90
2022/09/12 05:28:36;;;;;;;16.60;12.70;;;17.60;79.30;;;;;;4998615;28;20249;-90
2022/09/12 05:31:04;;;;;;;18.67;12.27;;;17.60;77.90;;;;;;5003097;28;20636;-90
2022/09/12 05:33:33;;;;;;;17.80;13.00;;;17.60;76.60;;;;;;4984202;28;20221;-90
2022/09/12 05:35:59;;;;;;;19.83;12.97;;;17.60;77.60;;;;;;5002326;28;20190;-90
2022/09/12 05:38:27;;;;;;;16.87;12.67;;;17.60;79.00;;;;;;5002873;28;20576;-91
2022/09/12 05:41:11;;;;;;;14.73;12.30;;;17.50;81.50;;;;;;5004789;28;20236;-91
2022/09/12 05:43:40;;;;;;;14.37;12.80;;;17.50;82.30;;;;;;5006070;28;20183;-92
2022/09/12 05:46:12;;;;;;;16.53;12.20;;;17.50;80.90;;;;;;5005152;28;20190;-88
2022/09/12 05:48:41;;;;;;;14.37;12.27;;;17.50;80.20;;;;;;5003698;28;20190;-89
2022/09/12 05:51:12;;;;;;;18.80;12.93;;;17.50;79.30;;;;;;4999426;28;20192;-88
2022/09/12 05:53:39;;;;;;;16.60;11.60;;;17.50;81.80;;;;;;4999759;28;20309;-86
2022/09/12 05:56:18;;;;;;;14.50;11.87;;;17.40;80.80;;;;;;5017694;28;20667;-88
2022/09/12 05:58:55;;;;;;;15.20;11.37;;;17.40;82.70;;;;;;5002114;28;20200;-90
2022/09/12 06:01:25;;;;;;;22.87;15.00;;;17.40;81.50;;;;;;5017911;28;20187;-89
2022/09/12 06:03:55;;;;;;;18.13;14.27;;;17.50;80.00;;;;;;5001719;28;20261;-91
2022/09/12 06:06:24;;;;;;;19.13;14.23;;;17.50;81.00;;;;;;5006035;28;20218;-92
2022/09/12 06:08:53;;;;;;;15.03;12.27;;;17.50;79.60;;;;;;5010945;28;20212;-92
2022/09/12 06:11:27;;;;;;;18.57;11.70;;;17.60;79.40;;;;;;5033690;28;20172;-92
2022/09/12 06:13:55;;;;;;;16.03;11.73;;;17.70;76.90;;;;;;5037587;28;20256;-90
2022/09/12 06:16:24;;;;;;;13.97;11.20;;;17.70;74.30;;;;;;5016828;28;20169;-90
2022/09/12 06:19:33;;;;;;;12.97;10.80;;;17.80;73.20;;;;;;5011535;28;20202;-92
2022/09/12 06:22:02;;;;;;;12.60;10.67;;;17.90;69.60;;;;;;5003118;28;20330;-95
2022/09/12 06:24:38;;;;;;;14.57;11.47;;;18.10;64.10;;;;;;5008566;28;20199;-94
2022/09/12 06:30:55;;;;;;;16.77;11.50;;;18.20;59.40;;;;;;5022671;28;20693;-92
2022/09/12 06:33:23;;;;;;;21.00;12.73;;;18.40;53.80;;;;;;5020296;28;20271;-91
2022/09/12 06:35:52;;;;;;;16.50;12.10;;;18.50;47.00;;;;;;5017680;28;20231;-90
2022/09/12 06:38:17;;;;;;;15.60;12.53;;;18.60;44.70;;;;;;5014093;28;20204;-93
2022/09/12 06:44:16;;;;;;;12.77;11.47;;;18.60;45.10;;;;;;5019665;28;20166;-92
2022/09/12 06:46:52;;;;;;;14.30;11.27;;;18.70;43.60;;;;;;5002117;28;20178;-92
2022/09/12 06:49:30;;;;;;;13.30;10.77;;;18.80;40.60;;;;;;5002830;28;20408;-96
2022/09/12 06:51:59;;;;;;;15.43;11.03;;;18.90;38.00;;;;;;5003775;28;20247;-91
2022/09/12 06:54:41;;;;;;;13.50;10.77;;;18.90;39.50;;;;;;5002526;28;20615;-90
2022/09/12 06:57:11;;;;;;;12.47;10.70;;;19.00;38.30;;;;;;5003208;28;20247;-91
2022/09/12 06:59:41;;;;;;;15.60;10.80;;;19.10;33.50;;;;;;5003908;28;20221;-93
2022/09/12 07:02:30;;;;;;;13.27;9.80;;;19.20;26.60;;;;;;5019392;28;20183;-90
2022/09/12 07:05:12;;;;;;;14.90;10.60;;;19.20;25.20;;;;;;5021091;28;20183;-93
2022/09/12 07:07:40;;;;;;;14.57;10.13;;;19.40;24.00;;;;;;5038227;28;20159;-91
2022/09/12 07:10:10;;;;;;;14.20;10.33;;;19.20;24.40;;;;;;5020663;28;20211;-94
2022/09/12 07:13:01;;;;;;;12.33;9.80;;;19.30;21.10;;;;;;5036738;28;20226;-92
2022/09/12 07:15:33;;;;;;;12.77;9.10;;;19.40;21.90;;;;;;5019666;28;20241;-91
2022/09/12 07:18:02;;;;;;;12.17;9.30;;;19.40;23.40;;;;;;5018285;28;20182;-93
2022/09/12 07:20:31;;;;;;;14.97;9.50;;;19.40;23.00;;;;;;5018633;28;20155;-91
2022/09/12 07:22:58;;;;;;;18.77;9.03;;;19.40;23.70;;;;;;5009288;28;20240;-91
2022/09/12 07:25:26;;;;;;;13.53;9.07;;;19.50;23.70;;;;;;4999521;28;20174;-90
2022/09/12 07:27:52;;;;;;;15.53;9.37;;;19.50;24.10;;;;;;4999113;28;20188;-90
2022/09/12 07:30:18;;;;;;;12.50;7.77;;;19.70;21.80;;;;;;5000617;28;20202;-90
2022/09/12 07:32:44;;;;;;;11.73;7.13;;;19.60;17.40;;;;;;5010758;28;20225;-91
2022/09/12 07:35:10;;;;;;;9.30;7.27;;;19.60;15.20;;;;;;5021060;28;20193;-89
2022/09/12 07:37:38;;;;;;;12.23;7.53;;;19.70;17.30;;;;;;5020804;28;20220;-89
2022/09/12 07:40:04;;;;;;;9.47;7.20;;;19.90;15.40;;;;;;5019152;28;20286;-90
2022/09/12 07:42:33;;;;;;;7.73;6.93;;;19.90;10.00;;;;;;5015120;28;20189;-89
2022/09/12 07:45:23;;;;;;;8.70;6.27;;;20.00;7.30;;;;;;5010350;28;20171;-89
2022/09/12 07:48:10;;;;;;;7.23;6.07;;;20.10;7.90;;;;;;5005950;28;20543;-91
2022/09/12 07:51:19;;;;;;;9.60;6.47;;;20.30;1.00;;;;;;5017294;28;20193;-90
2022/09/12 07:53:48;;;;;;;6.90;5.70;;;20.30;1.00;;;;;;5003434;28;20638;-91
2022/09/12 07:56:23;;;;;;;7.53;5.33;;;20.40;1.00;;;;;;5011323;28;20183;-92
2022/09/12 07:58:50;;;;;;;7.13;5.00;;;20.40;1.00;;;;;;5014157;28;20208;-91
2022/09/12 08:01:20;;;;;;;9.13;5.70;;;20.30;1.00;;;;;;5024902;28;20169;-91
2022/09/12 08:03:47;;;;;;;7.40;5.27;;;20.40;1.00;;;;;;5003890;28;20188;-92
2022/09/12 08:06:19;;;;;;;6.47;4.90;;;20.70;1.00;;;;;;5004330;28;20179;-91
2022/09/12 08:08:46;;;;;;;5.60;5.00;;;20.80;1.00;;;;;;5002895;28;20247;-90
2022/09/12 08:11:15;;;;;;;7.83;4.47;;;20.90;1.00;;;;;;5005398;28;20187;-90
2022/09/12 08:13:47;;;;;;;8.50;4.37;;;21.00;1.00;;;;;;4992742;28;20221;-92
2022/09/12 08:16:20;;;;;;;6.90;4.60;;;20.80;1.00;;;;;;5012362;28;20182;-92
2022/09/12 08:18:47;;;;;;;6.10;4.77;;;20.60;1.00;;;;;;5024504;28;20188;-90
2022/09/12 08:21:16;;;;;;;6.67;4.93;;;20.70;1.00;;;;;;5009049;28;20189;-89
2022/09/12 08:23:56;;;;;;;7.40;5.43;;;20.90;1.00;;;;;;5010733;28;20179;-90
2022/09/12 08:26:27;;;;;;;7.43;4.87;;;21.00;1.00;;;;;;5012672;28;20181;-90
2022/09/12 08:28:53;;;;;;;9.50;5.10;;;21.10;1.00;;;;;;5013122;28;20181;-93
2022/09/12 08:31:22;;;;;;;8.57;6.17;;;21.10;1.00;;;;;;5004643;28;20253;-91
2022/09/12 08:33:49;;;;;;;8.73;5.17;;;21.10;1.00;;;;;;5004242;28;20303;-91
2022/09/12 08:36:21;;;;;;;8.03;6.00;;;21.20;1.00;;;;;;5001906;28;20185;-92
2022/09/12 08:38:49;;;;;;;9.83;6.17;;;21.20;1.00;;;;;;5001696;28;20200;-91
2022/09/12 08:41:27;;;;;;;9.63;6.17;;;21.30;1.00;;;;;;5001945;28;20191;-90
2022/09/12 08:44:02;;;;;;;8.67;6.63;;;21.50;1.00;;;;;;5002317;28;20177;-93
2022/09/12 08:46:38;;;;;;;8.40;6.00;;;21.70;1.00;;;;;;5002598;28;20182;-92
2022/09/12 08:49:07;;;;;;;8.87;5.87;;;21.90;1.00;;;;;;4988635;28;20548;-92
2022/09/12 08:51:34;;;;;;;8.33;6.20;;;22.00;1.00;;;;;;5004362;28;20193;-91
2022/09/12 08:54:03;;;;;;;9.30;5.93;;;22.00;1.00;;;;;;5003744;28;20312;-91
2022/09/12 08:56:35;;;;;;;9.20;5.43;;;21.90;1.00;;;;;;4986911;28;20305;-90
2022/09/12 08:59:02;;;;;;;8.63;4.70;;;21.90;1.00;;;;;;5006991;28;20256;-93
2022/09/12 09:01:37;;;;;;;9.43;5.33;;;21.90;1.00;;;;;;5021389;28;20182;-91
2022/09/12 09:04:33;;;;;;;8.70;5.30;;;22.00;1.00;;;;;;5013675;28;20192;-91
2022/09/12 09:07:24;;;;;;;9.57;4.70;;;22.00;1.00;;;;;;5005457;28;20232;-92
2022/09/12 09:10:26;;;;;;;8.00;5.00;;;22.10;1.00;;;;;;4999536;28;20207;-92
2022/09/12 09:13:06;;;;;;;7.90;4.30;;;22.10;1.00;;;;;;4999001;28;20222;-92
2022/09/12 09:15:53;;;;;;;8.53;4.40;;;22.20;1.00;;;;;;4999966;28;20597;-92
2022/09/12 09:18:23;;;;;;;10.13;4.73;;;22.50;1.00;;;;;;5008401;28;20170;-91
2022/09/12 09:20:56;;;;;;;9.43;4.43;;;22.80;1.00;;;;;;5010993;28;20242;-91
2022/09/12 09:23:35;;;;;;;6.50;4.40;;;22.70;1.00;;;;;;5008358;28;20183;-90
2022/09/12 09:26:15;;;;;;;8.47;4.23;;;22.90;1.00;;;;;;5014474;28;20171;-90
2022/09/12 09:29:01;;;;;;;9.27;4.63;;;22.80;1.00;;;;;;5009828;28;20187;-92
2022/09/12 09:31:42;;;;;;;6.23;3.90;;;22.90;1.00;;;;;;5010431;28;20190;-93
2022/09/12 09:34:20;;;;;;;7.00;4.27;;;23.10;1.00;;;;;;5007738;28;20191;-91
2022/09/12 09:37:05;;;;;;;6.57;3.33;;;23.20;1.00;;;;;;5006174;28;20210;-93
2022/09/12 09:40:08;;;;;;;7.83;3.50;;;23.40;1.00;;;;;;5007526;28;20217;-92
2022/09/12 09:43:11;;;;;;;5.67;3.60;;;23.60;1.00;;;;;;5007403;28;20192;-92
2022/09/12 09:45:41;;;;;;;7.87;3.70;;;23.50;1.00;;;;;;5008603;28;20179;-91
2022/09/12 09:48:17;;;;;;;6.23;3.70;;;23.40;1.00;;;;;;5009845;28;20189;-92
2022/09/12 09:50:44;;;;;;;6.03;3.30;;;23.40;1.00;;;;;;5007459;28;20183;-92
2022/09/12 09:53:27;;;;;;;6.60;3.60;;;23.60;1.00;;;;;;5005613;28;20699;-91
2022/09/12 09:56:19;;;;;;;6.37;3.43;;;23.70;1.00;;;;;;5000743;28;20178;-91
2022/09/12 09:58:50;;;;;;;7.43;3.67;;;23.70;1.00;;;;;;5004783;28;20229;-90
2022/09/12 10:01:19;;;;;;;5.17;3.17;;;23.80;1.00;;;;;;5002481;28;20278;-91
2022/09/12 10:03:54;;;;;;;5.13;3.50;;;23.90;1.00;;;;;;4999447;28;20191;-90
2022/09/12 10:06:31;;;;;;;6.30;3.10;;;23.90;1.00;;;;;;4998833;28;20178;-90
2022/09/12 10:09:17;;;;;;;4.10;2.23;;;23.90;99.90;;;;;;4998187;28;20186;-90
2022/09/12 10:11:45;;;;;;;5.63;2.60;;;24.00;99.90;;;;;;4997586;28;20576;-92
2022/09/12 10:14:40;;;;;;;4.30;2.57;;;24.00;99.90;;;;;;4998886;28;20195;-91
2022/09/12 10:17:43;;;;;;;4.57;2.90;;;24.00;99.90;;;;;;5001845;28;20187;-91
2022/09/12 10:20:30;;;;;;;4.23;2.47;;;24.10;99.90;;;;;;4996904;28;20217;-91
2022/09/12 10:23:00;;;;;;;5.83;2.90;;;24.00;99.90;;;;;;4997062;28;20190;-92
2022/09/12 10:25:27;;;;;;;4.13;2.73;;;24.10;99.90;;;;;;4997484;28;20181;-92
2022/09/12 10:27:59;;;;;;;4.17;2.50;;;24.20;99.90;;;;;;4997311;28;20270;-91
2022/09/12 10:30:27;;;;;;;5.63;2.97;;;24.20;99.90;;;;;;4997704;28;20214;-90
2022/09/12 10:33:00;;;;;;;4.73;2.47;;;24.40;99.90;;;;;;5000656;28;20222;-92
2022/09/12 10:35:41;;;;;;;3.23;2.27;;;24.20;99.90;;;;;;4997817;28;20191;-90
2022/09/12 10:38:23;;;;;;;3.83;2.10;;;24.30;99.90;;;;;;4997090;28;20193;-92
2022/09/12 10:41:00;;;;;;;5.17;2.50;;;24.50;99.90;;;;;;4996852;28;20245;-92
2022/09/12 10:43:33;;;;;;;6.20;2.40;;;24.60;99.90;;;;;;4997328;28;20202;-89
2022/09/12 10:46:22;;;;;;;3.57;2.23;;;24.50;99.90;;;;;;4996809;28;20225;-90
2022/09/12 10:49:11;;;;;;;4.10;2.43;;;24.40;99.90;;;;;;4998909;28;20182;-91
2022/09/12 10:51:38;;;;;;;4.93;2.67;;;24.40;99.90;;;;;;4997572;28;20305;-90
2022/09/12 10:54:07;;;;;;;3.87;2.40;;;24.30;99.90;;;;;;4996389;28;20222;-91
2022/09/12 10:56:51;;;;;;;4.97;2.10;;;24.10;99.90;;;;;;4997720;28;20186;-90
2022/09/12 10:59:30;;;;;;;4.47;2.30;;;24.10;99.90;;;;;;4997504;28;20602;-90
2022/09/12 11:02:22;;;;;;;4.17;2.30;;;24.20;99.90;;;;;;4997644;28;20187;-91
2022/09/12 11:05:12;;;;;;;3.73;2.40;;;24.50;99.90;;;;;;4996353;28;20189;-91
2022/09/12 11:07:48;;;;;;;4.07;2.40;;;24.70;99.90;;;;;;4997104;28;20529;-92
2022/09/12 11:10:33;;;;;;;4.37;2.40;;;24.70;99.90;;;;;;5001669;28;20635;-90
2022/09/12 11:13:43;;;;;;;3.20;2.30;;;24.60;99.90;;;;;;5001747;28;20254;-89
2022/09/12 11:16:11;;;;;;;6.10;2.73;;;24.70;99.90;;;;;;4999497;28;20174;-92
2022/09/12 11:18:44;;;;;;;3.77;2.30;;;24.70;99.90;;;;;;4996417;28;20182;-91
2022/09/12 11:21:33;;;;;;;4.50;2.20;;;24.50;99.90;;;;;;5012539;28;20186;-89
2022/09/12 11:24:29;;;;;;;5.53;2.20;;;24.70;99.90;;;;;;5004817;28;20272;-89
2022/09/12 11:27:13;;;;;;;3.90;2.10;;;24.90;9.70;;;;;;5020298;28;20274;-91
2022/09/12 11:29:51;;;;;;;5.67;2.10;;;25.10;1.00;;;;;;5023210;28;20742;-90
2022/09/12 11:32:23;;;;;;;3.77;2.20;;;25.20;1.00;;;;;;5022588;28;20233;-90
2022/09/12 11:34:59;;;;;;;4.80;2.33;;;25.10;99.90;;;;;;5020056;28;20631;-89
2022/09/12 11:37:33;;;;;;;4.00;1.87;;;25.20;99.90;;;;;;5004678;28;20192;-90
2022/09/12 11:40:09;;;;;;;4.13;2.20;;;25.20;1.00;;;;;;5006768;28;20255;-92
2022/09/12 11:42:41;;;;;;;6.13;2.20;;;25.40;1.00;;;;;;5021613;28;20165;-92
2022/09/12 11:45:18;;;;;;;2.83;1.80;;;25.50;99.90;;;;;;5023893;28;20177;-92
2022/09/12 11:47:49;;;;;;;3.70;1.93;;;25.60;99.90;;;;;;5023625;28;20220;-91
2022/09/12 11:50:27;;;;;;;2.90;1.50;;;25.50;99.90;;;;;;5023146;28;20260;-91
2022/09/12 11:53:17;;;;;;;2.70;1.57;;;25.40;1.00;;;;;;5022505;28;20222;-90
2022/09/12 11:55:58;;;;;;;4.03;1.70;;;25.80;1.00;;;;;;5013032;28;20179;-91
2022/09/12 11:58:30;;;;;;;3.20;1.60;;;25.90;1.00;;;;;;5004546;28;20185;-90
2022/09/12 12:01:12;;;;;;;3.57;1.60;;;25.70;99.90;;;;;;5004064;28;20654;-91
2022/09/12 12:03:44;;;;;;;2.90;1.70;;;25.60;99.90;;;;;;5005157;28;20194;-90
2022/09/12 12:06:32;;;;;;;2.83;1.53;;;25.40;99.90;;;;;;5014772;28;20169;-91
2022/09/12 12:08:58;;;;;;;7.32;4.35;;;25.80;99.90;;;;;;5039440;28;20176;-91
2022/09/12 12:11:32;;;;;;;2.57;1.53;;;25.90;1.00;;;;;;5021981;28;20213;-92
2022/09/12 12:14:04;;;;;;;3.27;1.70;;;26.10;99.90;;;;;;5034131;28;20230;-92
2022/09/12 12:16:33;;;;;;;3.70;1.90;;;26.30;99.90;;;;;;5023451;28;20170;-92
2022/09/12 12:19:16;;;;;;;2.75;1.70;;;26.40;1.00;;;;;;5028908;23;20245;-91
2022/09/12 12:21:47;;;;;;;2.63;1.70;;;26.50;1.00;;;;;;4989112;28;20182;-90
2022/09/12 12:24:29;;;;;;;3.40;1.90;;;26.50;1.00;;;;;;5002003;28;20193;-91
2022/09/12 12:27:43;;;;;;;3.83;1.60;;;26.40;99.90;;;;;;4992853;28;20202;-91
2022/09/12 12:30:39;;;;;;;2.63;1.80;;;26.30;1.00;;;;;;5000242;28;20187;-90
2022/09/12 12:33:11;;;;;;;3.73;1.90;;;26.30;1.00;;;;;;4995176;28;20227;-91
2022/09/12 12:36:00;;;;;;;3.17;1.83;;;26.30;1.00;;;;;;4980733;28;20191;-92
2022/09/12 12:38:28;;;;;;;3.22;1.50;;;26.50;1.00;;;;;;4978869;28;20187;-91
2022/09/12 12:41:17;;;;;;;11.52;3.42;;;26.60;1.00;;;;;;4964179;28;20183;-91
2022/09/12 12:43:45;;;;;;;3.15;1.75;;;26.90;1.00;;;;;;4978872;28;20234;-91
2022/09/12 12:46:13;;;;;;;3.67;1.67;;;26.90;99.90;;;;;;4963694;28;20188;-92
2022/09/12 12:49:05;;;;;;;3.00;1.70;;;26.80;99.90;;;;;;4963381;28;20198;-92
2022/09/12 12:52:16;;;;;;;2.42;1.65;;;26.50;99.90;;;;;;4965330;28;20216;-91
2022/09/12 12:54:42;;;;;;;3.78;1.85;;;26.60;1.00;;;;;;4942071;29;20196;-91
2022/09/12 12:57:25;;;;;;;4.93;1.80;;;26.70;1.00;;;;;;4940161;29;20612;-90
2022/09/12 13:00:08;;;;;;;2.40;1.63;;;26.70;4.00;;;;;;4948576;28;20180;-91
2022/09/12 13:02:49;;;;;;;2.63;1.50;;;26.60;99.90;;;;;;4995842;28;20542;-91
2022/09/12 13:05:23;;;;;;;3.28;1.65;;;26.60;1.00;;;;;;4964395;28;20723;-91
2022/09/12 13:07:57;;;;;;;3.23;2.00;;;26.70;1.00;;;;;;4964480;28;20240;-90
2022/09/12 13:10:28;;;;;;;4.13;2.30;;;26.60;99.90;;;;;;4946153;29;20191;-91
2022/09/12 13:12:56;;;;;;;5.17;1.93;;;26.70;40.50;;;;;;4960887;29;20305;-92
2022/09/12 13:15:47;;;;;;;3.30;1.53;;;26.80;1.00;;;;;;4945261;29;20187;-90
2022/09/12 13:18:20;;;;;;;3.60;1.77;;;26.80;99.90;;;;;;4945259;29;20275;-90
2022/09/12 13:21:13;;;;;;;2.42;1.60;;;26.90;1.00;;;;;;4959229;29;20565;-90
2022/09/12 13:23:39;;;;;;;2.80;1.60;;;26.90;99.90;;;;;;4944491;29;20184;-90
2022/09/12 13:26:19;;;;;;;2.22;1.48;;;27.10;1.00;;;;;;4944517;29;20184;-90
2022/09/12 13:28:49;;;;;;;3.67;1.95;;;27.40;1.00;;;;;;4961657;28;20262;-91